createdAt,value
2019-01-24T05:03:53.473Z,78.015137
2019-01-24T05:07:21.370Z,78.857422
2019-01-24T05:10:49.265Z,78.540039
2019-01-24T05:14:17.149Z,78.540039
2019-01-24T05:17:45.054Z,78.118896
2019-01-24T05:21:12.954Z,78.33252
2019-01-24T05:24:40.856Z,78.436279
2019-01-24T05:28:08.755Z,78.857422
2019-01-24T05:31:36.659Z,78.857422
2019-01-24T05:35:04.681Z,78.753662
2019-01-24T05:38:33.571Z,79.071045
2019-01-24T05:42:02.627Z,78.643799
2019-01-24T05:45:30.519Z,78.540039
2019-01-24T05:48:58.419Z,78.540039
2019-01-24T05:52:26.329Z,78.857422
2019-01-24T05:55:54.473Z,78.540039
2019-01-24T05:59:22.379Z,78.436279
2019-01-24T06:02:50.273Z,78.118896
2019-01-24T06:06:18.171Z,78.643799
2019-01-24T06:09:46.067Z,78.436279
2019-01-24T06:13:13.969Z,78.753662
2019-01-24T06:16:41.894Z,78.857422
2019-01-24T06:20:09.751Z,78.857422
2019-01-24T06:23:38.192Z,79.071045
2019-01-24T06:27:06.092Z,79.071045
2019-01-24T06:30:33.975Z,78.753662
2019-01-24T06:34:01.893Z,79.278564
2019-01-24T06:37:29.788Z,79.278564
2019-01-24T06:40:57.670Z,78.961182
2019-01-24T06:44:25.563Z,79.382324
2019-01-24T06:47:53.470Z,79.382324
2019-01-24T06:51:21.358Z,79.382324
2019-01-24T06:54:49.262Z,79.632568
2019-01-24T06:58:17.172Z,79.949951
2019-01-24T07:01:45.053Z,79.949951
2019-01-24T07:05:12.959Z,80.194092
2019-01-24T07:08:40.859Z,80.615234
2019-01-24T07:12:08.761Z,80.932617
2019-01-24T07:15:36.632Z,81.04248
2019-01-24T07:19:04.529Z,80.932617
2019-01-24T07:22:32.435Z,81.35376
2019-01-24T07:26:00.316Z,81.182861
2019-01-24T07:29:28.217Z,81.182861
2019-01-24T07:32:56.124Z,81.604004
2019-01-24T07:36:25.025Z,81.921387
2019-01-24T07:39:52.938Z,82.128906
2019-01-24T07:43:20.841Z,81.921387
2019-01-24T07:46:48.735Z,82.128906
2019-01-24T07:50:17.627Z,82.342529
2019-01-24T07:53:45.525Z,82.446289
2019-01-24T07:57:13.616Z,82.342529
2019-01-24T08:00:42.512Z,83.081055
2019-01-24T08:04:10.425Z,83.398438
2019-01-24T08:07:38.371Z,83.502197
2019-01-24T08:11:06.263Z,83.502197
2019-01-24T08:14:34.169Z,83.081055
2019-01-24T08:18:02.071Z,83.465576
2019-01-24T08:21:29.972Z,82.727051
2019-01-24T08:24:57.886Z,82.165527
2019-01-24T08:28:25.805Z,81.5979
2019-01-24T08:31:53.707Z,81.390381
2019-01-24T08:35:21.615Z,81.390381
2019-01-24T08:38:49.515Z,81.390381
2019-01-24T08:42:17.408Z,81.35376
2019-01-24T08:45:45.323Z,81.45752
2019-01-24T08:49:13.232Z,81.35376
2019-01-24T08:52:41.127Z,81.628418
2019-01-24T08:56:09.025Z,80.786133
2019-01-24T08:59:36.938Z,80.749512
2019-01-24T09:03:04.827Z,80.328369
2019-01-24T09:06:32.739Z,80.12085
2019-01-24T09:10:00.647Z,80.438232
2019-01-24T09:13:28.562Z,80.224609
2019-01-24T09:16:56.444Z,80.224609
2019-01-24T09:20:25.341Z,80.438232
2019-01-24T09:23:53.245Z,80.645752
2019-01-24T09:27:21.140Z,80.712891
2019-01-24T09:30:49.052Z,80.401611
2019-01-24T09:34:16.961Z,80.46875
2019-01-24T09:37:44.839Z,80.151367
2019-01-24T09:41:12.759Z,79.730225
2019-01-24T09:44:40.656Z,79.626465
2019-01-24T09:48:08.546Z,79.626465
2019-01-24T09:51:36.449Z,80.36499
2019-01-24T09:55:05.341Z,80.255127
2019-01-24T09:58:33.219Z,80.535889
2019-01-24T10:02:02.105Z,80.639648
2019-01-24T10:05:30.013Z,80.078125
2019-01-24T10:08:58.887Z,79.870605
2019-01-24T10:12:27.847Z,79.730225
2019-01-24T10:15:55.751Z,78.991699
2019-01-24T10:19:24.625Z,79.095459
2019-01-24T10:22:52.542Z,78.851318
2019-01-24T10:26:21.429Z,78.289795
2019-01-24T10:29:50.314Z,77.868652
2019-01-24T10:33:18.193Z,77.520752
2019-01-24T10:36:46.072Z,76.751709
2019-01-24T10:40:13.965Z,74.377441
2019-01-24T10:43:41.838Z,71.868896
2019-01-24T10:47:09.722Z,69.470215
2019-01-24T10:50:37.607Z,67.706299
2019-01-24T10:54:05.473Z,67.663574
2019-01-24T10:57:33.366Z,67.114258
2019-01-24T11:01:01.251Z,67.877197
2019-01-24T11:04:29.129Z,68.774414
2019-01-24T11:07:57.024Z,70.129395
2019-01-24T11:11:25.118Z,69.714355
2019-01-24T11:14:52.992Z,69.433594
2019-01-24T11:18:20.885Z,69.293213
2019-01-24T11:21:48.781Z,68.920898
2019-01-24T11:25:17.645Z,69.335938
2019-01-24T11:28:45.543Z,68.890381
2019-01-24T11:32:13.446Z,66.772461
2019-01-24T11:35:41.328Z,66.320801
2019-01-24T11:39:09.195Z,64.312744
2019-01-24T11:42:37.086Z,64.074707
2019-01-24T11:46:05.968Z,63.62915
2019-01-24T11:49:33.842Z,63.104248
2019-01-24T11:53:01.731Z,63.494873
2019-01-24T11:56:30.608Z,63.079834
2019-01-24T11:59:59.473Z,62.451172
2019-01-24T12:03:27.360Z,62.762451
2019-01-24T12:06:55.251Z,63.031006
2019-01-24T12:10:26.092Z,63.970947
2019-01-24T12:13:54.003Z,65.008545
2019-01-24T12:17:21.889Z,64.282227
2019-01-24T12:20:49.793Z,65.606689
2019-01-24T12:24:17.681Z,63.494873
2019-01-24T12:27:45.565Z,64.178467
2019-01-24T12:31:13.440Z,63.970947
2019-01-24T12:34:41.337Z,66.290283
2019-01-24T12:38:09.234Z,65.667725
2019-01-24T12:41:37.169Z,65.979004
2019-01-24T12:45:05.056Z,66.186523
2019-01-24T12:48:32.946Z,65.905762
2019-01-24T12:52:01.831Z,65.936279
2019-01-24T12:55:29.706Z,66.949463
2019-01-24T12:58:57.603Z,67.39502
2019-01-24T13:02:25.497Z,67.529297
2019-01-24T13:05:53.363Z,68.157959
2019-01-24T13:09:21.249Z,68.261719
2019-01-24T13:12:49.133Z,68.603516
2019-01-24T13:16:17.008Z,68.920898
2019-01-24T13:19:44.898Z,67.590332
2019-01-24T13:23:12.795Z,68.249512
2019-01-24T13:26:40.671Z,69.403076
2019-01-24T13:30:08.554Z,69.818115
2019-01-24T13:33:37.437Z,71.075439
2019-01-24T13:37:05.317Z,70.129395
2019-01-24T13:40:34.201Z,70.928955
2019-01-24T13:44:02.096Z,70.825195
2019-01-24T13:47:30.957Z,71.343994
2019-01-24T13:50:58.948Z,71.868896
2019-01-24T13:54:26.840Z,71.691895
2019-01-24T13:57:56.077Z,72.845459
2019-01-24T14:01:23.966Z,72.564697
2019-01-24T14:04:51.863Z,73.748779
2019-01-24T14:08:19.751Z,75.250244
2019-01-24T14:11:47.623Z,75.354004
2019-01-24T14:15:15.511Z,76.190186
2019-01-24T14:18:44.391Z,76.226807
2019-01-24T14:22:12.260Z,76.751709
2019-01-24T14:25:40.174Z,77.416992
2019-01-24T14:29:08.056Z,78.082275
2019-01-24T14:32:37.044Z,78.918457
2019-01-24T14:36:04.929Z,79.23584
2019-01-24T14:39:32.821Z,79.272461
2019-01-24T14:43:00.731Z,79.58374
2019-01-24T14:46:28.604Z,79.47998
2019-01-24T14:49:56.485Z,79.516602
2019-01-24T14:53:24.388Z,80.462646
2019-01-24T14:56:52.259Z,81.201172
2019-01-24T15:00:21.135Z,81.408691
2019-01-24T15:03:49.023Z,80.108643
2019-01-24T15:07:16.983Z,79.797363
2019-01-24T15:10:44.850Z,80.883789
2019-01-24T15:14:13.737Z,81.091309
2019-01-24T15:17:41.604Z,80.987549
2019-01-24T15:21:09.490Z,81.201172
2019-01-24T15:24:37.406Z,80.041504
2019-01-24T15:28:05.295Z,80.181885
2019-01-24T15:31:33.178Z,80.92041
2019-01-24T15:35:01.076Z,80.499268
2019-01-24T15:38:28.967Z,80.114746
2019-01-24T15:41:57.816Z,80.749512
2019-01-24T15:45:25.709Z,80.749512
2019-01-24T15:48:54.389Z,81.378174
2019-01-24T15:52:22.269Z,81.835938
2019-01-24T15:55:51.152Z,82.678223
2019-01-24T15:59:20.063Z,82.885742
2019-01-24T16:02:47.934Z,83.624268
2019-01-24T16:06:15.833Z,84.356689
2019-01-24T16:09:43.718Z,83.94165
2019-01-24T16:13:11.602Z,84.466553
2019-01-24T16:16:39.495Z,84.008789
2019-01-24T16:20:07.376Z,84.216309
2019-01-24T16:23:35.249Z,84.008789
2019-01-24T16:27:04.140Z,81.164551
2019-01-24T16:30:33.022Z,78.961182
2019-01-24T16:34:00.914Z,79.205322
2019-01-24T16:37:28.807Z,79.101562
2019-01-24T16:40:56.708Z,79.412842
2019-01-24T16:44:26.570Z,79.833984
2019-01-24T16:47:54.456Z,79.730225
2019-01-24T16:51:22.367Z,79.766846
2019-01-24T16:54:50.251Z,79.870605
2019-01-24T16:58:18.159Z,80.12085
2019-01-24T17:01:46.077Z,80.328369
2019-01-24T17:05:14.962Z,79.803467
2019-01-24T17:08:42.858Z,80.749512
2019-01-24T17:12:10.773Z,81.384277
2019-01-24T17:15:38.683Z,80.749512
2019-01-24T17:19:09.539Z,80.749512
2019-01-24T17:22:37.436Z,80.786133
2019-01-24T17:26:06.311Z,80.895996
2019-01-24T17:29:34.184Z,80.786133
2019-01-24T17:33:02.080Z,80.822754
2019-01-24T17:36:29.970Z,81.036377
2019-01-24T17:39:57.844Z,80.401611
2019-01-24T17:43:25.732Z,79.876709
2019-01-24T17:46:53.662Z,79.351807
2019-01-24T17:50:22.529Z,79.559326
2019-01-24T17:53:50.469Z,80.01709
2019-01-24T17:57:18.355Z,79.559326
2019-01-24T18:00:47.221Z,80.297852
2019-01-24T18:04:21.459Z,79.699707
2019-01-24T18:07:45.977Z,79.803467
2019-01-24T18:11:13.926Z,80.230713
2019-01-24T18:14:41.799Z,80.01709
2019-01-24T18:18:09.694Z,79.876709
2019-01-24T18:21:37.604Z,79.699707
2019-01-24T18:25:06.478Z,79.699707
2019-01-24T18:28:34.377Z,79.071045
2019-01-24T18:32:02.259Z,78.961182
2019-01-24T18:35:30.169Z,79.840088
2019-01-24T18:38:58.089Z,79.840088
2019-01-24T18:42:25.976Z,79.949951
2019-01-24T18:45:53.866Z,79.736328
2019-01-24T18:49:21.768Z,79.418945
2019-01-24T18:52:49.740Z,78.790283
2019-01-24T18:56:17.626Z,79.418945
2019-01-24T18:59:45.520Z,79.101562
2019-01-24T19:03:13.411Z,79.248047
2019-01-24T19:06:41.301Z,80.157471
2019-01-24T19:10:09.193Z,80.474854
2019-01-24T19:13:37.087Z,79.559326
2019-01-24T19:17:04.968Z,80.725098
2019-01-24T19:20:33.873Z,80.194092
2019-01-24T19:24:01.809Z,80.090332
2019-01-24T19:27:30.677Z,80.297852
2019-01-24T19:30:58.564Z,79.986572
2019-01-24T19:34:27.448Z,79.986572
2019-01-24T19:37:55.326Z,80.407715
2019-01-24T19:41:23.233Z,80.407715
2019-01-24T19:44:51.123Z,80.932617
2019-01-24T19:48:18.997Z,80.297852
2019-01-24T19:51:46.898Z,80.090332
2019-01-24T19:55:15.780Z,80.090332
2019-01-24T19:58:43.679Z,80.297852
2019-01-24T20:02:11.558Z,80.615234
2019-01-24T20:05:39.454Z,80.725098
2019-01-24T20:09:07.346Z,81.04248
2019-01-24T20:12:35.287Z,80.511475
2019-01-24T20:16:03.276Z,81.14624
2019-01-24T20:19:31.226Z,81.463623
2019-01-24T20:23:00.204Z,81.530762
2019-01-24T20:26:28.125Z,80.578613
2019-01-24T20:29:56.115Z,80.688477
2019-01-24T20:33:25.291Z,80.474854
2019-01-24T20:36:53.299Z,80.474854
2019-01-24T20:40:21.422Z,81.005859
2019-01-24T20:43:49.537Z,80.725098
2019-01-24T20:47:17.609Z,80.828857
2019-01-24T20:50:46.625Z,80.725098
2019-01-24T20:54:14.510Z,80.615234
2019-01-24T20:57:42.427Z,80.297852
2019-01-24T21:01:10.323Z,81.04248
2019-01-24T21:04:38.272Z,81.14624
2019-01-24T21:08:06.162Z,81.14624
2019-01-24T21:11:34.054Z,80.651855
2019-01-24T21:15:01.929Z,81.25
2019-01-24T21:18:29.812Z,80.725098
2019-01-24T21:21:57.705Z,81.04248
2019-01-24T21:25:26.618Z,81.04248
2019-01-24T21:28:54.489Z,81.079102
2019-01-24T21:32:22.381Z,80.932617
2019-01-24T21:35:50.269Z,80.761719
2019-01-24T21:39:22.245Z,81.286621
2019-01-24T21:42:49.016Z,81.286621
2019-01-24T21:46:16.906Z,81.707764
2019-01-24T21:49:44.780Z,81.884766
2019-01-24T21:53:12.670Z,81.25
2019-01-24T21:56:41.545Z,81.25
2019-01-24T22:00:09.416Z,81.04248
2019-01-24T22:03:37.311Z,81.35376
2019-01-24T22:07:05.206Z,80.828857
2019-01-24T22:10:33.086Z,80.932617
2019-01-24T22:14:00.970Z,80.725098
2019-01-24T22:17:28.859Z,80.090332
2019-01-24T22:20:56.745Z,80.828857
2019-01-24T22:24:24.641Z,80.511475
2019-01-24T22:27:52.536Z,80.090332
2019-01-24T22:31:21.416Z,80.297852
2019-01-24T22:34:49.290Z,80.511475
2019-01-24T22:38:17.177Z,80.511475
2019-01-24T22:41:45.077Z,80.615234
2019-01-24T22:45:12.949Z,80.932617
2019-01-24T22:48:40.836Z,80.651855
2019-01-24T22:52:08.735Z,80.969238
2019-01-24T22:55:36.616Z,81.671143
2019-01-24T22:59:04.507Z,81.25
